Fuquay Varina, NC

12:36 PM EDT on September 04, 2015 (GMT -0400)
Northwest Fuquay | | Change Station
CLOSE
Current Station
Personal Weather Station
Location: Fuquay Varina, NC
Elevation: 410 ft
Nearby Weather Stations

Elev 410 ft 35.62 °N, 78.80 °W | Updated 36 seconds ago

Clear
Clear
88.2 °F
Feels Like 94 °F
N
0.0
Wind Variable Wind from SSW
Gusts 0.0 mph

Today
High -- | Low -- °F
--% Chance of Precip.
Yesterday
High -- | Low -- °F
Precip. -- in
6:49 AM 7:38 PM
Waning Gibbous, 58% visible
Pressure 30.01 in
Visibility 10.0 miles
Clouds Clear
Heat Index 94 °F
Dew Point 71 °F
Humidity 57%
Rainfall 0.00 in
Snow Depth Not available.
UV 9 out of 12
Pollen 8.50 out of 12
Air Quality Not available.
Flu Activity Not available.
METAR KHRJ 041615Z AUTO 05005KT 10SM CLR 32/18 A3001 RMK AO2 T03200182
Pressure 30.01 in
Visibility 10.0 miles
Clouds Clear
Heat Index 94 °F
Dew Point 71 °F
Humidity 57%
Rainfall 0.00 in
Snow Depth Not available.
UV 9 out of 12
Pollen 8.50 out of 12
Air Quality Not available.
Flu Activity Not available.
METAR KHRJ 041615Z AUTO 05005KT 10SM CLR 32/18 A3001 RMK AO2 T03200182

10-Day Weather Forecast

×

Almanac

Astronomy

Sep. 04, 2015 Rise Set
Actual Time
Civil Twilight
Nautical Twilight
Astronomical Twilight
Moon
Length of Visible Light
Length of Day
Tomorrow will be .
, % of the Moon is Illuminated

Today's Extremes

State Highs State Lows

Community

WunderPhotos

Upload Photos

1,852,220 photos uploaded!

WunderBlogs® & News

Nearby

Air Quality

  Air Quality AQ Index Pollutant
Not available.

Snow Depth

Station Depth Elevation

Earthquake Activity

City Distance Mag. Time & Date
Minimum magnitude displayed is 2.5.

Coastal Water Temperatures

Place Temperature

Stations

Nearby Weather Stations

Station Location Temp. Windchill Dew Point Humidity Wind Precip. Elev Updated Type